Time;durP1;ratioP1;P1;durP2;ratioP2;P2;SDS_P1;SDS_P2;PMS_P1;PMS_P2;Temp;Humidity;BMP_temperature;BMP_pressure;BME280_temperature;BME280_humidity;BME280_pressure;Samples;Min_cycle;Max_cycle;Signal;HPM_P1;HPM_P2
2021/01/08 00:00:20;;;;;;;2.58;1.33;;;3.70;99.90;;;;;;4860681;29;20133;-68
2021/01/08 00:02:48;;;;;;;1.92;1.40;;;3.70;99.90;;;;;;4862936;29;20049;-67
2021/01/08 00:05:14;;;;;;;1.73;1.20;;;3.70;99.90;;;;;;4861927;29;20068;-67
2021/01/08 00:07:40;;;;;;;2.97;1.33;;;3.70;99.90;;;;;;4861935;29;20050;-67
2021/01/08 00:10:12;;;;;;;1.92;1.42;;;3.70;99.90;;;;;;4854969;29;20140;-71
2021/01/08 00:12:38;;;;;;;2.33;1.50;;;3.70;99.90;;;;;;4862763;29;20053;-67
2021/01/08 00:15:05;;;;;;;2.20;1.50;;;3.60;99.90;;;;;;4860784;29;20047;-67
2021/01/08 00:17:32;;;;;;;1.92;1.38;;;3.70;99.90;;;;;;4858600;29;20141;-67
2021/01/08 00:19:59;;;;;;;2.05;1.50;;;3.70;99.90;;;;;;4860429;29;20481;-67
2021/01/08 00:22:26;;;;;;;2.40;1.50;;;3.70;99.90;;;;;;4862604;29;20053;-67
2021/01/08 00:24:54;;;;;;;2.30;1.52;;;3.70;99.90;;;;;;4862614;29;20170;-68
2021/01/08 00:27:23;;;;;;;1.70;1.30;;;3.70;99.90;;;;;;4856468;29;20458;-68
2021/01/08 00:29:50;;;;;;;1.90;1.27;;;3.70;99.90;;;;;;4861462;29;20057;-67
2021/01/08 00:32:20;;;;;;;1.70;1.20;;;3.70;99.90;;;;;;4860046;29;20054;-68
2021/01/08 00:34:47;;;;;;;1.90;1.23;;;3.70;99.90;;;;;;4868694;29;20055;-67
2021/01/08 00:37:14;;;;;;;1.77;1.23;;;3.70;99.90;;;;;;4857486;29;20140;-67
2021/01/08 00:39:41;;;;;;;1.73;1.23;;;3.70;99.90;;;;;;4856725;29;20053;-67
2021/01/08 00:42:08;;;;;;;1.75;1.17;;;3.70;99.90;;;;;;4862215;29;20054;-68
2021/01/08 00:44:39;;;;;;;1.80;1.13;;;3.70;99.90;;;;;;4856990;29;20049;-67
2021/01/08 00:47:06;;;;;;;1.60;1.13;;;3.70;99.90;;;;;;4857543;29;20064;-68
2021/01/08 00:49:33;;;;;;;2.08;1.40;;;3.70;99.90;;;;;;4847680;29;20063;-67
2021/01/08 00:51:59;;;;;;;1.50;1.10;;;3.70;99.90;;;;;;4856016;29;20125;-68
2021/01/08 00:54:25;;;;;;;1.70;1.10;;;3.70;99.90;;;;;;4860536;29;20053;-68
2021/01/08 00:56:52;;;;;;;1.98;1.20;;;3.70;99.90;;;;;;4862090;29;20064;-68
2021/01/08 00:59:18;;;;;;;1.60;1.20;;;3.70;99.90;;;;;;4859331;29;20060;-67
2021/01/08 01:01:44;;;;;;;2.20;1.17;;;3.70;99.90;;;;;;4866152;29;20440;-67
2021/01/08 01:04:11;;;;;;;1.50;1.10;;;3.70;99.90;;;;;;4861570;29;20405;-68
2021/01/08 01:06:40;;;;;;;2.42;1.08;;;3.70;99.90;;;;;;4861841;29;20103;-67
2021/01/08 01:09:08;;;;;;;1.52;1.10;;;3.70;99.90;;;;;;4859781;29;20058;-68
2021/01/08 01:11:34;;;;;;;1.65;1.20;;;3.70;99.90;;;;;;4860855;29;20106;-68
2021/01/08 01:14:01;;;;;;;1.48;0.93;;;3.70;99.90;;;;;;4858734;29;20046;-68
2021/01/08 01:16:28;;;;;;;2.03;1.20;;;3.70;99.90;;;;;;4867702;29;20141;-67
2021/01/08 01:18:57;;;;;;;1.88;1.10;;;3.70;99.90;;;;;;4849087;29;20077;-67
2021/01/08 01:21:27;;;;;;;1.85;1.00;;;3.70;99.90;;;;;;4855529;29;20049;-68
2021/01/08 01:23:55;;;;;;;1.63;1.13;;;3.70;99.90;;;;;;4860391;29;20432;-69
2021/01/08 01:26:22;;;;;;;1.30;1.00;;;3.70;99.90;;;;;;4861589;29;20081;-68
2021/01/08 01:28:49;;;;;;;1.52;1.02;;;3.80;99.90;;;;;;4858923;29;20060;-68
2021/01/08 01:31:15;;;;;;;1.70;1.10;;;3.70;99.90;;;;;;4863446;29;20468;-68
2021/01/08 01:33:41;;;;;;;1.30;1.00;;;3.70;99.90;;;;;;4861256;29;20061;-68
2021/01/08 01:36:09;;;;;;;1.95;1.20;;;3.80;99.90;;;;;;4860818;29;20133;-67
2021/01/08 01:38:36;;;;;;;3.05;1.13;;;3.80;99.90;;;;;;4861336;29;20052;-68
2021/01/08 01:41:04;;;;;;;1.38;1.02;;;3.70;99.90;;;;;;4852742;29;20729;-67
2021/01/08 01:43:30;;;;;;;1.30;0.95;;;3.80;99.90;;;;;;4857291;29;20060;-68
2021/01/08 01:45:56;;;;;;;1.30;1.10;;;3.80;99.90;;;;;;4857331;29;20065;-67
2021/01/08 01:48:23;;;;;;;2.25;1.15;;;3.80;99.90;;;;;;4860285;29;20402;-67
2021/01/08 01:50:52;;;;;;;2.15;1.10;;;3.80;99.90;;;;;;4858979;29;20524;-68
2021/01/08 01:53:19;;;;;;;1.40;1.00;;;3.80;99.90;;;;;;4859652;29;20124;-68
2021/01/08 01:55:47;;;;;;;1.50;1.00;;;3.80;99.90;;;;;;4860278;29;20050;-67
2021/01/08 01:58:14;;;;;;;1.67;1.20;;;3.80;99.90;;;;;;4859993;29;20046;-67
2021/01/08 02:00:40;;;;;;;1.80;1.17;;;3.80;99.90;;;;;;4855987;29;20049;-67
2021/01/08 02:03:20;;;;;;;1.80;1.48;;;3.80;99.90;;;;;;4863557;29;20169;-67
2021/01/08 02:05:49;;;;;;;1.90;1.30;;;3.80;99.90;;;;;;4860797;29;20141;-67
2021/01/08 02:08:24;;;;;;;1.48;1.17;;;3.80;99.90;;;;;;4858183;29;20077;-67
2021/01/08 02:11:03;;;;;;;1.58;1.30;;;3.80;99.90;;;;;;4858160;29;20097;-67
2021/01/08 02:13:35;;;;;;;2.22;1.35;;;3.70;99.90;;;;;;4859518;29;20076;-68
2021/01/08 02:16:01;;;;;;;1.75;1.33;;;3.80;99.90;;;;;;4857142;29;20049;-67
2021/01/08 02:18:31;;;;;;;1.90;1.58;;;3.80;99.90;;;;;;4863649;29;20044;-67
2021/01/08 02:21:02;;;;;;;2.20;1.35;;;3.80;99.90;;;;;;4856558;29;20067;-68
2021/01/08 02:23:57;;;;;;;2.05;1.40;;;3.80;99.90;;;;;;4852755;29;20050;-68
2021/01/08 02:26:24;;;;;;;1.70;1.33;;;3.80;99.90;;;;;;4856499;29;20695;-67
2021/01/08 02:28:52;;;;;;;2.13;1.70;;;3.80;99.90;;;;;;4854105;29;20046;-67
2021/01/08 02:31:18;;;;;;;1.75;1.38;;;3.80;99.90;;;;;;4853455;29;20415;-67
2021/01/08 02:33:45;;;;;;;1.63;1.25;;;3.80;99.90;;;;;;4859681;29;20458;-67
2021/01/08 02:36:11;;;;;;;3.05;1.40;;;3.80;99.90;;;;;;4859633;29;20052;-67
2021/01/08 02:38:40;;;;;;;;;;;3.80;99.90;;;;;;4859379;29;20557;-68
2021/01/08 02:41:09;;;;;;;1.73;1.40;;;3.80;99.90;;;;;;4841549;29;19928;-67
2021/01/08 02:43:35;;;;;;;2.13;1.70;;;3.80;99.90;;;;;;4852745;29;20117;-67
2021/01/08 02:46:02;;;;;;;2.45;1.63;;;3.80;99.90;;;;;;4859919;29;20052;-68
2021/01/08 02:48:29;;;;;;;1.90;1.40;;;3.80;99.90;;;;;;4859214;29;20046;-67
2021/01/08 02:50:57;;;;;;;1.70;1.42;;;3.90;99.90;;;;;;4852874;29;20608;-68
2021/01/08 02:53:31;;;;;;;2.08;1.45;;;3.90;99.90;;;;;;4859088;29;20432;-67
2021/01/08 02:56:01;;;;;;;2.33;1.40;;;3.90;99.90;;;;;;4859563;29;20068;-67
2021/01/08 02:58:28;;;;;;;3.28;1.50;;;3.90;99.90;;;;;;4857323;29;20164;-67
2021/01/08 03:00:56;;;;;;;1.85;1.33;;;3.90;99.90;;;;;;4855101;29;20165;-67
2021/01/08 03:03:27;;;;;;;2.10;1.48;;;3.90;99.90;;;;;;4860255;29;20132;-70
2021/01/08 03:05:56;;;;;;;2.63;1.63;;;3.90;99.90;;;;;;4858709;29;20049;-68
2021/01/08 03:08:23;;;;;;;2.10;1.58;;;3.90;99.90;;;;;;4854608;29;20144;-68
2021/01/08 03:10:49;;;;;;;3.13;1.67;;;3.80;99.90;;;;;;4859027;29;20053;-68
2021/01/08 03:13:17;;;;;;;1.92;1.45;;;3.80;99.90;;;;;;4860167;29;20089;-67
2021/01/08 03:15:43;;;;;;;2.30;1.40;;;3.80;99.90;;;;;;4859984;29;20148;-67
2021/01/08 03:18:10;;;;;;;2.10;1.40;;;3.80;99.90;;;;;;4860465;29;20054;-67
2021/01/08 03:20:38;;;;;;;2.03;1.38;;;3.80;99.90;;;;;;4837327;29;20149;-68
2021/01/08 03:23:06;;;;;;;2.10;1.30;;;3.80;99.90;;;;;;4860377;29;20098;-67
2021/01/08 03:25:32;;;;;;;1.70;1.35;;;3.80;99.90;;;;;;4859436;29;20086;-67
2021/01/08 03:27:59;;;;;;;2.63;1.50;;;3.80;99.90;;;;;;4855150;29;20109;-67
2021/01/08 03:30:25;;;;;;;1.83;1.20;;;3.80;99.90;;;;;;4858078;29;20049;-67
2021/01/08 03:32:51;;;;;;;2.03;1.50;;;3.80;99.90;;;;;;4863471;29;20041;-67
2021/01/08 03:35:19;;;;;;;1.67;1.20;;;3.80;99.90;;;;;;4841413;29;20133;-67
2021/01/08 03:37:45;;;;;;;2.63;1.50;;;3.80;99.90;;;;;;4864105;29;20493;-67
2021/01/08 03:40:12;;;;;;;2.63;1.35;;;3.70;99.90;;;;;;4862015;29;20489;-67
2021/01/08 03:42:38;;;;;;;2.13;1.50;;;3.70;99.90;;;;;;4863122;29;20059;-67
2021/01/08 03:45:05;;;;;;;2.20;1.13;;;3.70;99.90;;;;;;4861335;29;20093;-67
2021/01/08 03:47:32;;;;;;;1.90;1.27;;;3.70;99.90;;;;;;4863517;29;20228;-67
2021/01/08 03:50:00;;;;;;;2.05;1.33;;;3.70;99.90;;;;;;4865325;29;20057;-68
2021/01/08 03:52:26;;;;;;;1.90;1.17;;;3.70;99.90;;;;;;4861792;29;20057;-68
2021/01/08 03:54:53;;;;;;;2.20;1.33;;;3.70;99.90;;;;;;4860288;29;20088;-68
2021/01/08 03:57:20;;;;;;;1.55;1.15;;;3.60;99.90;;;;;;4886646;24;20056;-67
2021/01/08 03:59:46;;;;;;;2.15;1.38;;;3.60;99.90;;;;;;4887005;29;20166;-67
2021/01/08 04:02:13;;;;;;;1.80;1.20;;;3.60;99.90;;;;;;4884432;29;20048;-67
2021/01/08 04:04:39;;;;;;;2.13;1.15;;;3.60;99.90;;;;;;4884061;29;20076;-67
2021/01/08 04:22:29;;;;;;;2.38;1.10;;;3.60;99.90;;;;;;4884242;29;20123;-70
2021/01/08 04:24:56;;;;;;;1.73;1.20;;;3.50;99.90;;;;;;4892247;29;20080;-68
2021/01/08 04:27:22;;;;;;;1.70;1.17;;;3.50;99.90;;;;;;4884309;29;20051;-68
2021/01/08 04:29:48;;;;;;;1.85;1.08;;;3.50;99.90;;;;;;4883786;29;20412;-67
2021/01/08 04:32:14;;;;;;;1.60;1.20;;;3.50;99.90;;;;;;4887001;29;20049;-68
2021/01/08 04:34:41;;;;;;;1.80;1.27;;;3.50;99.90;;;;;;4860742;29;20426;-67
2021/01/08 04:37:07;;;;;;;1.70;1.30;;;3.50;99.90;;;;;;4886157;29;20104;-68
2021/01/08 04:39:33;;;;;;;1.38;1.00;;;3.50;99.90;;;;;;4877538;29;20133;-67
2021/01/08 04:42:00;;;;;;;1.98;1.10;;;3.40;99.90;;;;;;4889986;29;20040;-67
2021/01/08 04:44:27;;;;;;;1.92;1.30;;;3.40;99.90;;;;;;4886490;29;20049;-67
2021/01/08 04:46:53;;;;;;;1.88;1.25;;;3.40;99.90;;;;;;4888434;29;20053;-67
2021/01/08 04:49:20;;;;;;;1.65;1.02;;;3.40;99.90;;;;;;4888515;29;20044;-67
2021/01/08 04:51:47;;;;;;;1.58;1.00;;;3.40;99.90;;;;;;4894307;29;20127;-67
2021/01/08 04:54:14;;;;;;;1.65;1.10;;;3.30;99.90;;;;;;4889336;29;20049;-67
2021/01/08 04:56:53;;;;;;;1.58;1.08;;;3.30;99.90;;;;;;4850521;29;20046;-68
2021/01/08 04:59:23;;;;;;;1.60;1.10;;;3.30;99.90;;;;;;4857438;29;20047;-67
2021/01/08 05:01:49;;;;;;;1.45;0.98;;;3.30;99.90;;;;;;4857418;29;20378;-67
2021/01/08 05:04:16;;;;;;;1.67;1.10;;;3.30;99.90;;;;;;4858516;29;20053;-68
2021/01/08 05:06:42;;;;;;;2.67;1.00;;;3.30;99.90;;;;;;4855157;29;20061;-68
2021/01/08 05:09:08;;;;;;;1.40;1.00;;;3.30;99.90;;;;;;4860850;29;20457;-69
2021/01/08 05:11:34;;;;;;;1.65;0.90;;;3.20;99.90;;;;;;4862060;29;20081;-67
2021/01/08 05:14:07;;;;;;;1.30;1.10;;;3.20;99.90;;;;;;4861075;29;20065;-67
2021/01/08 05:16:33;;;;;;;2.20;1.10;;;3.20;99.90;;;;;;4859201;29;20144;-68
2021/01/08 05:19:04;;;;;;;1.35;1.10;;;3.20;99.90;;;;;;4857028;29;20089;-68
2021/01/08 05:21:31;;;;;;;1.30;1.00;;;3.10;99.90;;;;;;4856759;29;20096;-67
2021/01/08 05:23:59;;;;;;;1.23;0.90;;;3.10;99.90;;;;;;4864783;29;20064;-68
2021/01/08 05:26:26;;;;;;;1.67;1.00;;;3.00;99.90;;;;;;4860908;29;20053;-68
2021/01/08 05:29:01;;;;;;;1.85;1.20;;;3.00;99.90;;;;;;4857159;29;20047;-67
2021/01/08 05:31:29;;;;;;;1.27;0.98;;;2.90;99.90;;;;;;4854537;29;20389;-68
2021/01/08 05:33:56;;;;;;;1.55;0.98;;;2.90;99.90;;;;;;4860366;29;20069;-67
2021/01/08 05:36:23;;;;;;;1.75;1.20;;;2.90;99.90;;;;;;4860120;29;20080;-68
2021/01/08 05:38:52;;;;;;;1.67;1.05;;;2.90;99.90;;;;;;4860362;29;20052;-68
2021/01/08 05:41:21;;;;;;;1.55;1.00;;;2.80;99.90;;;;;;4856901;29;20057;-67
2021/01/08 05:43:47;;;;;;;1.88;1.20;;;2.80;99.90;;;;;;4857873;29;20057;-69
2021/01/08 05:46:18;;;;;;;2.00;1.50;;;2.80;99.90;;;;;;4852658;29;20456;-68
2021/01/08 05:48:50;;;;;;;1.83;1.30;;;2.80;99.90;;;;;;4858372;29;20096;-68
2021/01/08 05:51:22;;;;;;;3.33;1.40;;;2.80;99.90;;;;;;4855411;29;20060;-68
2021/01/08 05:53:52;;;;;;;2.13;1.38;;;2.80;99.90;;;;;;4856203;29;20041;-68
2021/01/08 05:56:22;;;;;;;1.40;1.00;;;2.70;99.90;;;;;;4856516;29;20500;-68
2021/01/08 05:58:50;;;;;;;1.80;1.30;;;2.70;99.90;;;;;;4849012;29;20140;-69
2021/01/08 06:01:17;;;;;;;1.77;1.13;;;2.70;99.90;;;;;;4851179;29;20067;-68
2021/01/08 06:03:45;;;;;;;2.53;1.40;;;2.70;99.90;;;;;;4858871;29;20068;-68
2021/01/08 06:06:12;;;;;;;1.95;1.35;;;2.70;99.90;;;;;;4859545;29;20104;-68
2021/01/08 06:08:43;;;;;;;1.80;1.23;;;2.70;99.90;;;;;;4861167;29;20096;-68
2021/01/08 06:11:29;;;;;;;1.60;1.10;;;2.60;99.90;;;;;;4843080;29;20053;-67
2021/01/08 06:14:00;;;;;;;2.88;1.20;;;2.60;99.90;;;;;;4855852;29;20136;-68
2021/01/08 06:16:35;;;;;;;1.88;1.20;;;2.60;99.90;;;;;;4866388;29;20148;-68
2021/01/08 06:19:02;;;;;;;2.13;1.30;;;2.50;99.90;;;;;;4858305;29;20121;-68
2021/01/08 06:21:56;;;;;;;1.83;1.30;;;2.50;99.90;;;;;;4857375;29;20056;-67
2021/01/08 06:24:24;;;;;;;1.90;1.10;;;2.50;99.90;;;;;;4857328;29;20045;-68
2021/01/08 06:26:52;;;;;;;1.90;1.10;;;2.50;99.90;;;;;;4848746;29;20081;-67
2021/01/08 06:29:19;;;;;;;1.90;1.30;;;2.50;99.90;;;;;;4859151;29;20392;-68
2021/01/08 06:31:56;;;;;;;1.90;1.25;;;2.50;99.90;;;;;;4854840;29;20508;-68
2021/01/08 06:34:25;;;;;;;1.70;1.27;;;2.50;99.90;;;;;;4860220;29;20083;-68
2021/01/08 06:37:07;;;;;;;1.70;1.30;;;2.50;99.90;;;;;;4858778;29;20462;-67
2021/01/08 06:39:44;;;;;;;2.50;1.50;;;2.50;99.90;;;;;;4859326;29;20511;-69
2021/01/08 06:42:25;;;;;;;1.90;1.20;;;2.50;99.90;;;;;;4856345;29;20053;-67
2021/01/08 06:44:51;;;;;;;1.70;1.33;;;2.50;99.90;;;;;;4858700;29;20480;-67
2021/01/08 06:47:21;;;;;;;1.75;1.30;;;2.50;99.90;;;;;;4854853;29;20075;-67
2021/01/08 06:49:52;;;;;;;1.88;1.38;;;2.50;99.90;;;;;;4855081;29;20504;-70
2021/01/08 06:52:20;;;;;;;1.50;1.30;;;2.50;99.90;;;;;;4872818;24;20053;-67
2021/01/08 06:54:55;;;;;;;1.92;1.30;;;2.50;99.90;;;;;;4877687;29;20136;-68
2021/01/08 06:57:22;;;;;;;1.73;1.30;;;2.50;99.90;;;;;;4879914;29;20056;-69
2021/01/08 07:00:04;;;;;;;1.63;1.25;;;2.50;99.90;;;;;;4876932;29;20419;-67
2021/01/08 07:02:32;;;;;;;1.73;1.30;;;2.60;99.90;;;;;;4876525;29;20053;-68
2021/01/08 07:05:00;;;;;;;1.85;1.40;;;2.60;99.90;;;;;;4876059;29;20089;-68
2021/01/08 07:07:29;;;;;;;2.05;1.48;;;2.60;99.90;;;;;;4880115;29;20049;-68
2021/01/08 07:09:56;;;;;;;;;;;2.60;99.90;;;;;;4882007;29;20049;-68
2021/01/08 07:12:26;;;;;;;1.92;1.48;;;2.60;99.90;;;;;;4881190;29;20373;-68
2021/01/08 07:14:53;;;;;;;2.13;1.35;;;2.60;99.90;;;;;;4877689;29;20057;-68
2021/01/08 07:17:33;;;;;;;1.63;1.20;;;2.60;99.90;;;;;;4879727;29;20087;-68
2021/01/08 07:20:03;;;;;;;1.77;1.33;;;2.60;99.90;;;;;;4878723;29;20096;-68
2021/01/08 07:22:37;;;;;;;;;;;2.60;99.90;;;;;;4880689;29;20052;-67
2021/01/08 07:25:11;;;;;;;2.42;1.42;;;2.60;99.90;;;;;;4887015;29;19933;-68
2021/01/08 07:27:40;;;;;;;2.00;1.20;;;2.60;99.90;;;;;;4878411;29;20132;-68
2021/01/08 07:30:10;;;;;;;2.22;1.40;;;2.60;99.90;;;;;;4858091;29;20080;-69
2021/01/08 07:32:37;;;;;;;1.67;1.13;;;2.60;99.90;;;;;;4878027;29;20049;-67
2021/01/08 07:35:28;;;;;;;2.10;1.50;;;2.60;99.90;;;;;;4875267;29;20177;-67
2021/01/08 07:38:16;;;;;;;2.25;1.58;;;2.60;99.90;;;;;;4862634;29;20058;-67
2021/01/08 07:40:48;;;;;;;2.63;1.50;;;2.60;99.90;;;;;;4875093;29;20053;-66
2021/01/08 07:43:16;;;;;;;2.35;1.65;;;2.70;99.90;;;;;;4873444;29;20117;-68
2021/01/08 07:45:54;;;;;;;2.55;1.75;;;2.70;99.90;;;;;;4875916;29;20511;-68
2021/01/08 07:48:28;;;;;;;;;;;2.70;99.90;;;;;;4875318;29;20064;-68
2021/01/08 07:51:09;;;;;;;2.40;1.58;;;2.70;99.90;;;;;;4874576;29;19942;-68
2021/01/08 07:53:41;;;;;;;2.40;1.52;;;2.70;99.90;;;;;;4882594;29;20051;-67
2021/01/08 07:56:09;;;;;;;2.80;1.60;;;2.70;99.90;;;;;;4875653;29;20059;-68
2021/01/08 07:58:36;;;;;;;2.20;1.55;;;2.70;99.90;;;;;;4875860;29;20052;-67
2021/01/08 08:01:05;;;;;;;2.78;1.30;;;2.70;99.90;;;;;;4878688;29;20053;-67
2021/01/08 08:03:31;;;;;;;2.33;1.35;;;2.60;99.90;;;;;;4875841;29;20441;-67
2021/01/08 08:06:03;;;;;;;3.40;1.55;;;2.60;99.90;;;;;;4872669;29;20477;-67
2021/01/08 08:08:30;;;;;;;3.13;1.80;;;2.60;99.90;;;;;;4874075;29;20479;-68
2021/01/08 08:11:16;;;;;;;2.67;1.88;;;2.60;99.90;;;;;;4861573;29;20177;-68
2021/01/08 08:13:48;;;;;;;2.22;1.60;;;2.70;99.90;;;;;;4877112;29;20141;-67
2021/01/08 08:16:14;;;;;;;2.20;1.60;;;2.70;99.90;;;;;;4879170;29;20461;-68
2021/01/08 08:18:53;;;;;;;2.67;1.80;;;2.70;99.90;;;;;;4875014;29;20394;-67
2021/01/08 08:21:21;;;;;;;1.73;1.27;;;2.70;99.90;;;;;;4861738;29;20067;-68
2021/01/08 08:23:55;;;;;;;2.83;1.50;;;2.70;99.90;;;;;;4859020;29;20489;-67
2021/01/08 08:26:24;;;;;;;2.72;1.85;;;2.70;99.90;;;;;;4879838;29;20049;-67
2021/01/08 08:29:00;;;;;;;;;;;2.80;99.90;;;;;;4874328;29;20570;-68
2021/01/08 08:31:30;;;;;;;1.98;1.15;;;2.80;99.90;;;;;;4878356;29;20019;-68
2021/01/08 08:33:58;;;;;;;2.90;1.45;;;2.80;99.90;;;;;;4878306;29;20422;-67
2021/01/08 08:36:26;;;;;;;2.63;1.80;;;2.80;99.90;;;;;;4879995;29;20049;-67
2021/01/08 08:39:01;;;;;;;2.38;1.50;;;2.90;99.90;;;;;;4879303;29;20481;-67
2021/01/08 08:41:29;;;;;;;2.75;1.92;;;2.90;99.90;;;;;;4877982;29;20397;-69
2021/01/08 08:44:03;;;;;;;2.08;1.67;;;2.90;99.90;;;;;;4875964;29;20071;-68
2021/01/08 08:46:52;;;;;;;3.15;1.63;;;2.90;99.90;;;;;;4878602;29;20049;-67
2021/01/08 08:49:25;;;;;;;2.08;1.67;;;3.00;99.90;;;;;;4870144;29;20124;-68
2021/01/08 08:51:53;;;;;;;2.67;1.77;;;3.00;99.90;;;;;;4875795;29;20484;-68
2021/01/08 08:54:20;;;;;;;2.30;1.77;;;3.00;99.90;;;;;;4875775;29;20044;-68
2021/01/08 08:56:48;;;;;;;3.05;1.77;;;3.10;99.90;;;;;;4874378;29;20067;-68
2021/01/08 08:59:15;;;;;;;3.42;2.08;;;3.10;99.90;;;;;;4871235;29;20080;-68
2021/01/08 09:01:43;;;;;;;2.17;1.58;;;3.10;99.90;;;;;;4875299;29;20631;-67
2021/01/08 09:04:10;;;;;;;2.35;1.67;;;3.10;99.90;;;;;;4860190;29;20453;-67
2021/01/08 09:06:41;;;;;;;2.38;1.80;;;3.20;99.90;;;;;;4872494;29;20677;-67
2021/01/08 09:09:15;;;;;;;3.13;2.10;;;3.20;99.90;;;;;;4871970;29;20049;-68
2021/01/08 09:11:55;;;;;;;2.75;1.90;;;3.30;99.90;;;;;;4873834;29;20123;-68
2021/01/08 09:14:27;;;;;;;4.50;2.35;;;3.40;99.90;;;;;;4869356;29;20136;-68
2021/01/08 09:16:54;;;;;;;4.18;2.60;;;3.50;99.90;;;;;;4876782;29;20084;-67
2021/01/08 09:19:26;;;;;;;3.47;2.33;;;3.60;99.90;;;;;;4875838;29;20231;-68
2021/01/08 09:21:53;;;;;;;;;;;3.70;99.90;;;;;;4860712;29;20079;-67
2021/01/08 09:24:31;;;;;;;4.15;2.70;;;3.90;99.90;;;;;;4876791;29;19947;-68
2021/01/08 09:27:02;;;;;;;3.25;2.13;;;4.00;99.90;;;;;;4875714;29;20555;-67
2021/01/08 09:29:35;;;;;;;2.95;2.03;;;4.10;99.90;;;;;;4874693;29;20079;-68
2021/01/08 09:32:04;;;;;;;2.78;1.85;;;4.20;99.90;;;;;;4859740;29;20097;-67
2021/01/08 09:34:31;;;;;;;3.08;1.70;;;4.10;99.90;;;;;;4857793;29;20482;-68
2021/01/08 09:37:01;;;;;;;3.28;1.77;;;4.10;99.90;;;;;;4876844;29;20073;-67
2021/01/08 09:39:29;;;;;;;3.00;1.75;;;4.10;99.90;;;;;;4875393;29;20434;-68
2021/01/08 09:42:01;;;;;;;3.55;1.90;;;4.10;99.90;;;;;;4871995;29;20140;-67
2021/01/08 09:44:38;;;;;;;4.22;2.10;;;4.10;99.90;;;;;;4870602;29;20053;-67
2021/01/08 09:47:10;;;;;;;2.97;2.15;;;4.00;99.90;;;;;;4875273;29;20471;-68
2021/01/08 09:49:55;;;;;;;3.80;1.80;;;4.00;99.90;;;;;;4872760;29;20489;-70
2021/01/08 09:52:29;;;;;;;2.58;1.63;;;4.10;99.90;;;;;;4871141;29;20053;-68
2021/01/08 09:55:03;;;;;;;5.05;2.42;;;4.00;99.90;;;;;;4873602;29;20059;-68
2021/01/08 09:57:35;;;;;;;3.28;1.63;;;4.10;99.90;;;;;;4876189;29;20044;-68
2021/01/08 10:00:11;;;;;;;3.00;1.83;;;4.00;99.90;;;;;;4871339;29;21668;-68
2021/01/08 10:02:54;;;;;;;2.88;1.65;;;4.10;99.90;;;;;;4868055;29;20053;-67
2021/01/08 10:05:31;;;;;;;2.85;1.90;;;4.10;99.90;;;;;;4870999;29;20476;-68
2021/01/08 10:08:00;;;;;;;2.28;1.55;;;4.20;99.90;;;;;;4871935;29;20108;-68
2021/01/08 10:10:26;;;;;;;1.98;1.17;;;4.30;99.90;;;;;;4855568;29;20188;-67
2021/01/08 10:12:56;;;;;;;2.80;1.70;;;4.30;99.90;;;;;;4856256;29;20131;-67
2021/01/08 10:15:43;;;;;;;2.42;1.50;;;4.30;99.90;;;;;;4873819;29;20091;-68
2021/01/08 10:18:12;;;;;;;2.08;1.33;;;4.30;99.90;;;;;;4874132;29;20060;-68
2021/01/08 10:20:46;;;;;;;2.47;1.50;;;4.40;99.90;;;;;;4873793;29;20071;-67
2021/01/08 10:23:14;;;;;;;2.20;1.48;;;4.40;99.90;;;;;;4875690;29;20069;-68
2021/01/08 10:25:41;;;;;;;2.88;1.25;;;4.40;99.90;;;;;;4879833;29;20059;-68
2021/01/08 10:28:18;;;;;;;2.40;1.50;;;4.50;99.90;;;;;;4877732;29;20052;-67
2021/01/08 10:30:46;;;;;;;2.85;1.63;;;4.50;99.90;;;;;;4876882;29;20124;-68
2021/01/08 10:33:25;;;;;;;2.38;1.48;;;4.60;99.90;;;;;;4874826;29;20478;-69
2021/01/08 10:35:54;;;;;;;2.45;1.60;;;4.60;99.90;;;;;;4866443;29;20480;-67
2021/01/08 10:38:21;;;;;;;2.47;1.63;;;4.70;99.90;;;;;;4878310;29;20060;-67
2021/01/08 10:40:48;;;;;;;2.90;1.50;;;4.80;99.90;;;;;;4878570;29;20484;-68
2021/01/08 10:43:16;;;;;;;;;;;4.80;99.90;;;;;;4880910;29;20155;-68
2021/01/08 10:45:44;;;;;;;2.05;1.20;;;4.90;99.90;;;;;;4877254;29;19995;-68
2021/01/08 10:48:11;;;;;;;2.63;1.35;;;4.90;99.90;;;;;;4879293;29;20205;-68
2021/01/08 10:50:38;;;;;;;2.67;1.35;;;4.90;99.90;;;;;;4877450;29;20037;-68
2021/01/08 10:53:04;;;;;;;3.15;1.58;;;4.90;99.90;;;;;;4880070;29;20068;-67
2021/01/08 10:55:30;;;;;;;2.58;1.48;;;4.80;99.90;;;;;;4876851;29;20477;-68
2021/01/08 10:57:57;;;;;;;2.10;1.23;;;4.80;99.90;;;;;;4879684;29;20083;-67
2021/01/08 11:00:23;;;;;;;2.17;1.38;;;4.80;99.90;;;;;;4876292;29;20481;-68
2021/01/08 11:02:56;;;;;;;2.90;1.80;;;4.80;99.90;;;;;;4878858;29;20139;-67
2021/01/08 11:05:25;;;;;;;3.05;1.42;;;4.80;99.90;;;;;;4874483;29;20049;-68
2021/01/08 11:07:51;;;;;;;2.40;1.25;;;4.80;99.90;;;;;;4878669;29;20126;-67
2021/01/08 11:10:17;;;;;;;2.33;1.42;;;4.80;99.90;;;;;;4877584;29;20056;-68
2021/01/08 11:12:44;;;;;;;2.75;1.40;;;4.80;99.90;;;;;;4882417;29;20049;-68
2021/01/08 11:15:11;;;;;;;3.88;1.83;;;4.80;99.90;;;;;;4876157;29;20068;-68
2021/01/08 11:17:37;;;;;;;2.38;1.30;;;4.90;99.90;;;;;;4881800;29;20057;-68
2021/01/08 11:20:05;;;;;;;2.90;1.65;;;4.90;99.90;;;;;;4878536;29;20060;-68
2021/01/08 11:22:31;;;;;;;2.47;1.45;;;4.90;99.90;;;;;;4878145;29;20092;-67
2021/01/08 11:24:58;;;;;;;2.83;1.63;;;4.90;99.90;;;;;;4875680;29;20057;-68
2021/01/08 11:27:26;;;;;;;3.15;1.40;;;4.90;99.90;;;;;;4880602;29;20052;-68
2021/01/08 11:29:52;;;;;;;2.53;1.48;;;4.90;99.90;;;;;;4878502;29;20220;-68
2021/01/08 11:32:19;;;;;;;3.03;1.73;;;4.90;99.90;;;;;;4875792;29;20063;-68
2021/01/08 11:34:45;;;;;;;2.30;1.60;;;4.90;99.90;;;;;;4876957;29;20049;-68
2021/01/08 11:37:12;;;;;;;2.72;1.65;;;5.00;99.90;;;;;;4877519;29;20061;-67
2021/01/08 11:39:49;;;;;;;2.90;1.80;;;5.00;99.90;;;;;;4879119;29;20052;-67
2021/01/08 11:42:16;;;;;;;2.80;1.60;;;5.00;99.90;;;;;;4881978;29;20135;-69
2021/01/08 11:44:43;;;;;;;4.80;1.80;;;5.00;99.90;;;;;;4880130;29;20049;-68
2021/01/08 11:47:09;;;;;;;3.20;1.60;;;5.00;99.90;;;;;;4876891;29;20116;-68
2021/01/08 11:49:35;;;;;;;2.47;1.60;;;5.00;99.90;;;;;;4879239;29;20085;-67
2021/01/08 11:52:03;;;;;;;2.33;1.48;;;5.00;99.90;;;;;;4878463;29;20048;-67
2021/01/08 11:54:29;;;;;;;2.63;1.63;;;4.90;99.90;;;;;;4879093;29;20170;-68
2021/01/08 11:56:55;;;;;;;2.60;1.52;;;4.90;99.90;;;;;;4882680;29;20503;-67
2021/01/08 11:59:22;;;;;;;2.88;1.90;;;4.90;99.90;;;;;;4878155;29;20538;-67
2021/01/08 12:01:48;;;;;;;3.75;1.65;;;5.00;99.90;;;;;;4881265;29;20056;-68
2021/01/08 12:04:14;;;;;;;2.85;1.70;;;5.10;99.90;;;;;;4876997;29;20049;-68
2021/01/08 12:06:41;;;;;;;2.88;1.45;;;5.30;99.90;;;;;;4879368;29;20067;-68
2021/01/08 12:09:10;;;;;;;3.22;1.48;;;5.40;99.90;;;;;;4878184;29;20595;-68
2021/01/08 12:11:36;;;;;;;2.78;1.67;;;5.50;99.90;;;;;;4875195;29;20143;-68
2021/01/08 12:14:03;;;;;;;2.25;1.35;;;5.50;99.90;;;;;;4860006;29;20554;-67
2021/01/08 12:16:31;;;;;;;2.03;1.30;;;5.60;99.90;;;;;;4873734;29;21939;-68
2021/01/08 12:18:59;;;;;;;2.38;1.50;;;5.60;99.90;;;;;;4870265;29;20053;-68
2021/01/08 12:21:28;;;;;;;2.47;1.38;;;5.60;99.90;;;;;;4876551;29;20136;-68
2021/01/08 12:23:55;;;;;;;2.05;1.10;;;5.70;99.90;;;;;;4875946;29;20061;-67
2021/01/08 12:26:26;;;;;;;2.17;1.40;;;5.60;99.90;;;;;;4868769;29;20083;-68
2021/01/08 12:28:52;;;;;;;2.38;1.40;;;5.60;99.90;;;;;;4864165;29;20071;-68
2021/01/08 12:31:23;;;;;;;3.28;1.88;;;5.60;99.90;;;;;;4877244;29;20059;-67
2021/01/08 12:33:50;;;;;;;2.00;1.23;;;5.70;99.90;;;;;;4857923;29;20083;-67
2021/01/08 12:36:18;;;;;;;2.35;1.30;;;5.80;99.90;;;;;;4872872;29;20163;-68
2021/01/08 12:38:47;;;;;;;2.97;1.25;;;6.00;99.90;;;;;;4872020;29;20059;-69
2021/01/08 12:41:15;;;;;;;2.53;1.40;;;6.00;99.90;;;;;;4874812;29;20100;-68
2021/01/08 12:43:41;;;;;;;2.13;1.45;;;6.10;99.90;;;;;;4874982;29;20054;-68
2021/01/08 12:46:08;;;;;;;1.92;1.05;;;6.10;99.90;;;;;;4875197;29;20076;-68
2021/01/08 12:48:36;;;;;;;2.40;1.48;;;6.10;99.90;;;;;;4873606;29;20193;-68
2021/01/08 12:51:02;;;;;;;2.40;1.30;;;6.10;99.90;;;;;;4857177;29;20081;-68
2021/01/08 12:53:28;;;;;;;3.30;1.58;;;6.10;99.90;;;;;;4872700;29;20041;-68
2021/01/08 12:55:54;;;;;;;2.33;1.40;;;6.10;99.90;;;;;;4871563;29;20056;-67
2021/01/08 12:58:20;;;;;;;2.50;1.50;;;6.00;99.90;;;;;;4873006;29;20053;-67
2021/01/08 13:00:53;;;;;;;1.98;1.20;;;6.00;99.90;;;;;;4870577;29;20143;-67
2021/01/08 13:03:19;;;;;;;2.40;1.52;;;6.00;99.90;;;;;;4873567;29;20561;-68
2021/01/08 13:06:01;;;;;;;2.45;1.27;;;5.90;99.90;;;;;;4871955;29;20071;-68
2021/01/08 13:08:27;;;;;;;2.60;1.48;;;5.90;99.90;;;;;;4871975;29;20101;-67
2021/01/08 13:10:53;;;;;;;2.08;1.50;;;5.90;99.90;;;;;;4875176;29;20109;-67
2021/01/08 13:13:20;;;;;;;2.10;1.25;;;5.80;99.90;;;;;;4870659;29;20056;-68
2021/01/08 13:15:46;;;;;;;1.98;1.23;;;5.80;99.90;;;;;;4876450;29;20057;-68
2021/01/08 13:18:13;;;;;;;4.72;1.35;;;5.80;99.90;;;;;;4876218;29;20049;-67
2021/01/08 13:20:40;;;;;;;2.70;1.42;;;5.80;99.90;;;;;;4870780;29;20084;-67
2021/01/08 13:23:06;;;;;;;2.05;1.30;;;5.70;99.90;;;;;;4874404;29;20465;-67